createdAt,value
2019-03-30T00:00:29.076Z,36.23
2019-03-30T00:03:38.418Z,36.93
2019-03-30T00:06:58.247Z,34.80
2019-03-30T00:10:08.068Z,35.90
2019-03-30T00:13:17.487Z,35.37
2019-03-30T00:16:26.960Z,36.17
2019-03-30T00:19:36.367Z,35.10
2019-03-30T00:22:56.016Z,36.03
2019-03-30T00:26:05.663Z,34.77
2019-03-30T00:29:15.078Z,35.80
2019-03-30T00:32:24.525Z,36.33
2019-03-30T00:35:34.024Z,35.53
2019-03-30T00:38:53.760Z,34.57
2019-03-30T00:42:04.318Z,35.60
2019-03-30T00:45:13.681Z,35.13
2019-03-30T00:48:23.141Z,36.33
2019-03-30T00:51:42.870Z,37.83
2019-03-30T00:54:52.357Z,35.83
2019-03-30T00:58:01.906Z,35.07
2019-03-30T01:01:11.662Z,35.27
2019-03-30T01:04:21.008Z,37.43
2019-03-30T01:07:30.456Z,35.07
2019-03-30T01:10:39.899Z,35.80
2019-03-30T01:13:59.817Z,35.83
2019-03-30T01:17:09.665Z,35.90
2019-03-30T01:20:18.970Z,34.43
2019-03-30T01:23:28.406Z,35.53
2019-03-30T01:26:48.691Z,35.50
2019-03-30T01:29:59.686Z,35.17
2019-03-30T01:33:09.156Z,35.17
2019-03-30T01:36:18.992Z,35.40
2019-03-30T01:39:28.423Z,35.07
2019-03-30T01:42:48.345Z,35.73
2019-03-30T01:45:57.875Z,36.23
2019-03-30T01:49:07.212Z,35.77
2019-03-30T01:52:16.741Z,36.57
2019-03-30T01:55:26.071Z,35.63
2019-03-30T01:58:45.794Z,35.23
2019-03-30T02:01:56.523Z,35.60
2019-03-30T02:05:06.276Z,36.93
2019-03-30T02:08:25.949Z,36.60
2019-03-30T02:11:35.368Z,35.87
2019-03-30T02:14:44.811Z,34.70
2019-03-30T02:18:04.584Z,35.90
2019-03-30T02:21:14.201Z,36.63
2019-03-30T02:24:23.548Z,36.10
2019-03-30T02:27:33.417Z,36.23
2019-03-30T02:30:42.769Z,36.23
2019-03-30T02:33:52.508Z,36.20
2019-03-30T02:37:01.826Z,36.17
2019-03-30T02:40:21.475Z,35.70
2019-03-30T02:43:30.953Z,35.97
2019-03-30T02:46:51.228Z,35.47
2019-03-30T02:50:00.686Z,34.47
2019-03-30T02:53:10.232Z,35.37
2019-03-30T02:56:19.775Z,35.00
2019-03-30T02:59:29.216Z,34.90
2019-03-30T03:02:48.985Z,36.00
2019-03-30T03:05:58.849Z,35.07
2019-03-30T03:09:10.574Z,35.17
2019-03-30T03:12:20.000Z,35.27
2019-03-30T03:15:29.657Z,36.70
2019-03-30T03:18:50.051Z,35.47
2019-03-30T03:21:59.390Z,36.03
2019-03-30T03:25:09.049Z,36.60
2019-03-30T03:28:18.604Z,34.90
2019-03-30T03:31:28.063Z,35.70
2019-03-30T03:34:47.845Z,34.33
2019-03-30T03:37:57.365Z,35.07
2019-03-30T03:41:06.736Z,33.97
2019-03-30T03:44:16.954Z,35.03
2019-03-30T03:47:36.796Z,34.70
2019-03-30T03:50:49.159Z,33.77
2019-03-30T03:53:58.803Z,33.47
2019-03-30T03:57:20.996Z,34.00
2019-03-30T04:00:30.715Z,33.77
2019-03-30T04:03:41.601Z,34.03
2019-03-30T04:06:53.344Z,34.17
2019-03-30T04:10:06.542Z,33.23
2019-03-30T04:13:17.276Z,34.73
2019-03-30T04:16:27.997Z,34.20
2019-03-30T04:19:37.445Z,33.93
2019-03-30T04:22:46.882Z,32.43
2019-03-30T04:25:56.325Z,33.70
2019-03-30T04:29:06.773Z,31.80
2019-03-30T04:32:26.730Z,31.97
2019-03-30T04:35:36.189Z,30.20
2019-03-30T04:38:45.573Z,31.63
2019-03-30T04:42:05.467Z,29.33
2019-03-30T04:45:15.036Z,29.77
2019-03-30T04:48:24.475Z,28.47
2019-03-30T04:51:39.816Z,28.83
2019-03-30T04:54:49.317Z,28.80
2019-03-30T04:58:01.411Z,29.17
2019-03-30T05:01:10.969Z,28.43
2019-03-30T05:04:20.421Z,28.17
2019-03-30T05:07:30.838Z,27.50
2019-03-30T05:10:40.173Z,29.20
2019-03-30T05:14:00.598Z,28.83
2019-03-30T05:17:10.244Z,29.27
2019-03-30T05:20:19.703Z,30.07
2019-03-30T05:23:29.202Z,30.53
2019-03-30T05:26:48.884Z,30.23
2019-03-30T05:29:58.537Z,30.33
2019-03-30T05:33:18.987Z,29.27
2019-03-30T05:36:28.315Z,30.50
2019-03-30T05:39:37.675Z,30.73
2019-03-30T05:42:47.340Z,30.67
2019-03-30T05:45:56.761Z,30.10
2019-03-30T05:49:06.210Z,28.97
2019-03-30T05:52:25.932Z,30.33
2019-03-30T05:55:37.126Z,27.13
2019-03-30T05:58:46.610Z,28.57
2019-03-30T06:01:55.956Z,27.53
2019-03-30T06:05:15.768Z,29.27
2019-03-30T06:08:25.236Z,28.53
2019-03-30T06:11:34.663Z,27.50
2019-03-30T06:14:44.196Z,24.77
2019-03-30T06:17:53.633Z,25.57
2019-03-30T06:21:13.566Z,24.23
2019-03-30T06:24:22.947Z,24.50
2019-03-30T06:27:32.294Z,24.17
2019-03-30T06:30:52.097Z,24.47
2019-03-30T06:34:01.459Z,22.63
2019-03-30T06:37:10.783Z,23.57
2019-03-30T06:40:30.646Z,22.23
2019-03-30T06:43:39.999Z,23.03
2019-03-30T06:46:49.352Z,23.33
2019-03-30T06:49:58.721Z,24.13
2019-03-30T06:53:08.089Z,23.13
2019-03-30T06:56:19.110Z,22.43
2019-03-30T06:59:38.885Z,21.37
2019-03-30T07:02:48.612Z,21.40
2019-03-30T07:05:58.300Z,20.13
2019-03-30T07:09:08.856Z,21.70
2019-03-30T07:12:21.369Z,20.90
2019-03-30T07:15:34.086Z,19.67
2019-03-30T07:18:45.378Z,19.47
2019-03-30T07:21:54.732Z,19.97
2019-03-30T07:25:04.092Z,19.80
2019-03-30T07:28:13.667Z,19.77
2019-03-30T07:31:35.916Z,18.77
2019-03-30T07:34:45.315Z,19.63
2019-03-30T07:37:54.973Z,18.80
2019-03-30T07:41:04.333Z,18.87
2019-03-30T07:44:13.706Z,19.13
2019-03-30T07:47:23.540Z,18.40
2019-03-30T07:50:32.909Z,18.03
2019-03-30T07:53:44.721Z,17.20
2019-03-30T07:57:04.139Z,17.13
2019-03-30T08:00:06.367Z,16.63
2019-03-30T08:03:17.342Z,16.23
2019-03-30T08:06:26.705Z,16.20
2019-03-30T08:09:46.456Z,16.47
2019-03-30T08:12:55.837Z,15.97
2019-03-30T08:16:05.268Z,15.90
2019-03-30T08:19:25.060Z,15.50
2019-03-30T08:22:34.535Z,15.20
2019-03-30T08:25:45.317Z,15.03
2019-03-30T08:28:55.673Z,15.07
2019-03-30T08:32:07.685Z,13.87
2019-03-30T08:35:17.056Z,14.80
2019-03-30T08:38:26.415Z,13.70
2019-03-30T08:41:36.796Z,13.17
2019-03-30T08:44:46.227Z,14.37
2019-03-30T08:48:06.727Z,14.33
2019-03-30T08:51:26.979Z,15.03
2019-03-30T08:54:36.595Z,13.83
2019-03-30T08:57:46.387Z,15.70
2019-03-30T09:00:55.897Z,14.50
2019-03-30T09:04:05.402Z,14.70
2019-03-30T09:07:14.880Z,14.07
2019-03-30T09:10:24.259Z,13.83
2019-03-30T09:13:44.055Z,16.10
2019-03-30T09:16:53.525Z,15.00
2019-03-30T09:20:02.907Z,15.33
2019-03-30T09:23:22.605Z,14.83
2019-03-30T09:26:31.946Z,15.30
2019-03-30T09:29:41.444Z,14.90
2019-03-30T09:33:01.213Z,14.47
2019-03-30T09:36:10.701Z,15.33
2019-03-30T09:39:20.172Z,15.23
2019-03-30T09:42:29.596Z,15.63
2019-03-30T09:45:38.974Z,15.37
2019-03-30T09:48:48.345Z,14.63
2019-03-30T09:51:57.697Z,14.83
2019-03-30T09:55:07.904Z,14.97
2019-03-30T09:58:17.375Z,14.77
2019-03-30T10:01:26.743Z,15.43
2019-03-30T10:04:36.318Z,15.87
2019-03-30T10:07:45.788Z,15.43
2019-03-30T10:10:55.259Z,14.10
2019-03-30T10:14:04.726Z,15.63
2019-03-30T10:17:24.632Z,14.83
2019-03-30T10:20:34.104Z,15.67
2019-03-30T10:23:43.463Z,16.20
2019-03-30T10:27:03.188Z,15.83
2019-03-30T10:30:12.886Z,14.73
2019-03-30T10:33:22.249Z,15.43
2019-03-30T10:36:31.615Z,14.73
2019-03-30T10:39:40.977Z,16.20
2019-03-30T10:42:50.324Z,15.33
2019-03-30T10:45:59.973Z,16.97
2019-03-30T10:49:09.406Z,16.50
2019-03-30T10:52:28.992Z,15.83
2019-03-30T10:55:38.574Z,16.07
2019-03-30T10:58:47.900Z,16.53
2019-03-30T11:02:07.538Z,15.90
2019-03-30T11:05:17.025Z,16.53
2019-03-30T11:08:26.471Z,18.67
2019-03-30T11:11:46.110Z,19.00
2019-03-30T11:14:55.754Z,16.10
2019-03-30T11:18:05.138Z,17.73
2019-03-30T11:21:14.125Z,19.00
2019-03-30T11:24:23.464Z,18.53
2019-03-30T11:27:32.865Z,18.60
2019-03-30T11:30:52.685Z,16.73
2019-03-30T11:34:02.027Z,16.60
2019-03-30T11:37:11.404Z,15.40
2019-03-30T11:40:31.198Z,17.43
2019-03-30T11:43:40.709Z,16.53
2019-03-30T11:46:50.071Z,15.03
2019-03-30T11:50:12.872Z,13.93
2019-03-30T11:53:22.332Z,12.77
2019-03-30T11:56:31.845Z,14.20
2019-03-30T11:59:51.438Z,14.20
2019-03-30T12:03:00.910Z,13.63
2019-03-30T12:06:10.273Z,12.53
2019-03-30T12:09:30.041Z,13.23
2019-03-30T12:12:39.592Z,12.67
2019-03-30T12:15:49.045Z,13.60
2019-03-30T12:19:08.595Z,13.53
2019-03-30T12:22:17.961Z,14.33
2019-03-30T12:25:35.444Z,10.97
2019-03-30T12:28:48.817Z,13.67
2019-03-30T12:31:58.146Z,13.93
2019-03-30T12:35:07.929Z,12.03
2019-03-30T12:38:17.273Z,14.03
2019-03-30T12:41:26.631Z,13.37
2019-03-30T12:44:36.029Z,12.00
2019-03-30T12:47:45.386Z,12.60
2019-03-30T12:50:54.864Z,12.13
2019-03-30T12:54:14.613Z,13.03
2019-03-30T12:57:24.050Z,11.87
2019-03-30T13:00:33.430Z,10.57
2019-03-30T13:03:53.148Z,11.73
2019-03-30T13:07:02.595Z,11.67
2019-03-30T13:10:12.099Z,11.70
2019-03-30T13:13:31.719Z,10.70
2019-03-30T13:16:41.164Z,9.33
2019-03-30T13:19:50.766Z,10.23
2019-03-30T13:23:00.110Z,10.83
2019-03-30T13:26:09.758Z,10.43
2019-03-30T13:29:29.459Z,10.33
2019-03-30T13:32:38.886Z,8.77
2019-03-30T13:35:48.371Z,9.70
2019-03-30T13:39:08.427Z,9.30
2019-03-30T13:42:17.760Z,8.93
2019-03-30T13:45:27.217Z,8.90
2019-03-30T13:48:36.547Z,9.40
2019-03-30T13:51:45.940Z,8.67
2019-03-30T13:54:55.447Z,8.67
2019-03-30T13:58:04.894Z,8.60
2019-03-30T14:01:14.343Z,9.00
2019-03-30T14:04:23.761Z,9.37
2019-03-30T14:07:33.306Z,8.03
2019-03-30T14:10:53.552Z,8.90
2019-03-30T14:14:03.051Z,10.20
2019-03-30T14:17:12.607Z,8.70
2019-03-30T14:20:22.154Z,8.57
2019-03-30T14:23:31.475Z,8.53
2019-03-30T14:26:51.275Z,8.73
2019-03-30T14:30:00.816Z,9.23
2019-03-30T14:33:10.444Z,9.17
2019-03-30T14:36:19.903Z,8.70
2019-03-30T14:39:29.333Z,9.13
2019-03-30T14:42:49.035Z,8.80
2019-03-30T14:45:58.497Z,9.27
2019-03-30T14:49:07.822Z,8.97
2019-03-30T14:52:27.617Z,9.03
2019-03-30T14:55:39.518Z,8.63
2019-03-30T14:58:48.098Z,8.87
2019-03-30T15:02:07.787Z,8.27
2019-03-30T15:05:17.456Z,9.20
2019-03-30T15:08:25.355Z,8.23
2019-03-30T15:11:37.901Z,7.60
2019-03-30T15:14:45.861Z,7.27
2019-03-30T15:18:05.545Z,8.73
2019-03-30T15:21:14.980Z,9.10
2019-03-30T15:24:24.594Z,9.23
2019-03-30T15:27:44.105Z,8.87
2019-03-30T15:30:53.611Z,9.00
2019-03-30T15:34:02.995Z,8.93
2019-03-30T15:37:22.702Z,10.33
2019-03-30T15:40:32.171Z,9.43
2019-03-30T15:43:41.676Z,9.73
2019-03-30T15:46:51.136Z,9.27
2019-03-30T15:50:00.464Z,8.17
2019-03-30T15:53:09.896Z,10.73
2019-03-30T15:56:19.251Z,9.43
2019-03-30T15:59:28.604Z,9.40
2019-03-30T16:02:49.166Z,9.13
2019-03-30T16:05:58.739Z,10.37
2019-03-30T16:09:18.241Z,9.37
2019-03-30T16:12:27.813Z,9.23
2019-03-30T16:15:38.542Z,9.27
2019-03-30T16:18:58.482Z,9.20
2019-03-30T16:22:07.923Z,9.33
2019-03-30T16:25:17.393Z,9.10
2019-03-30T16:28:26.876Z,8.50
2019-03-30T16:31:36.299Z,8.77
2019-03-30T16:34:45.776Z,8.07
2019-03-30T16:37:55.241Z,8.43
2019-03-30T16:41:04.786Z,8.10
2019-03-30T16:44:14.251Z,8.33
2019-03-30T16:47:23.688Z,8.17
2019-03-30T16:50:43.427Z,8.70
2019-03-30T16:53:52.933Z,7.60
2019-03-30T16:57:02.280Z,8.47
2019-03-30T17:00:21.993Z,8.63
2019-03-30T17:03:31.417Z,7.23
2019-03-30T17:06:40.838Z,8.00
2019-03-30T17:10:00.486Z,7.37
2019-03-30T17:13:09.945Z,6.80
2019-03-30T17:16:19.406Z,9.80
2019-03-30T17:19:39.029Z,8.73
2019-03-30T17:22:48.358Z,8.77
2019-03-30T17:25:57.771Z,10.43
2019-03-30T17:29:07.452Z,13.72
2019-03-30T17:32:16.786Z,14.67
2019-03-30T17:35:27.193Z,16.40
2019-03-30T17:38:36.543Z,21.90
2019-03-30T17:41:45.997Z,23.07
2019-03-30T17:44:58.325Z,27.23
2019-03-30T17:48:07.664Z,30.07
2019-03-30T17:51:27.807Z,28.87
2019-03-30T17:54:39.707Z,29.07
2019-03-30T17:58:12.182Z,29.80
2019-03-30T18:01:15.344Z,30.67
2019-03-30T18:04:21.798Z,30.57
2019-03-30T18:07:31.514Z,28.33
2019-03-30T18:10:40.941Z,31.90
2019-03-30T18:13:51.904Z,30.33
2019-03-30T18:17:11.549Z,36.27
2019-03-30T18:20:21.012Z,34.63
2019-03-30T18:23:30.442Z,36.87
2019-03-30T18:26:50.116Z,36.63
2019-03-30T18:29:59.541Z,36.70
2019-03-30T18:33:09.218Z,36.03
2019-03-30T18:36:19.958Z,37.20
2019-03-30T18:39:29.636Z,36.23
2019-03-30T18:42:39.032Z,37.20
2019-03-30T18:45:48.377Z,38.10
2019-03-30T18:48:57.745Z,37.07
2019-03-30T18:52:18.042Z,39.57
2019-03-30T18:55:27.420Z,38.17
2019-03-30T18:58:47.249Z,39.13
2019-03-30T19:01:56.608Z,36.20
2019-03-30T19:05:06.202Z,38.87
2019-03-30T19:08:25.793Z,39.37
2019-03-30T19:11:35.217Z,38.00
2019-03-30T19:14:44.658Z,39.03
2019-03-30T19:18:04.415Z,44.43
2019-03-30T19:21:13.855Z,44.13
2019-03-30T19:24:23.389Z,46.80
2019-03-30T19:27:32.880Z,44.30
2019-03-30T19:30:42.725Z,40.97
2019-03-30T19:33:52.275Z,40.37
2019-03-30T19:37:01.799Z,40.90
2019-03-30T19:40:11.437Z,40.30
2019-03-30T19:43:20.801Z,40.33
2019-03-30T19:46:40.510Z,41.43
2019-03-30T19:49:49.879Z,40.57
2019-03-30T19:52:59.237Z,41.47
2019-03-30T19:56:08.605Z,39.73
2019-03-30T19:59:17.977Z,39.80
2019-03-30T20:02:27.314Z,39.63
2019-03-30T20:05:47.125Z,40.40
2019-03-30T20:08:56.487Z,42.20
2019-03-30T20:12:05.928Z,39.27
2019-03-30T20:15:25.698Z,40.07
2019-03-30T20:18:35.164Z,41.60
2019-03-30T20:21:44.495Z,40.93
2019-03-30T20:25:04.768Z,41.17
2019-03-30T20:28:14.233Z,41.13
2019-03-30T20:31:23.577Z,41.83
2019-03-30T20:34:32.947Z,41.80
2019-03-30T20:37:42.291Z,42.53
2019-03-30T20:41:02.040Z,43.77
2019-03-30T20:44:12.581Z,41.53
2019-03-30T20:47:21.925Z,41.30
2019-03-30T20:50:31.388Z,44.50
2019-03-30T20:53:51.211Z,41.43
2019-03-30T20:57:00.185Z,42.97
2019-03-30T21:00:10.683Z,42.30
2019-03-30T21:03:20.036Z,41.03
2019-03-30T21:06:29.393Z,41.80
2019-03-30T21:09:38.743Z,41.33
2019-03-30T21:12:48.087Z,43.93
2019-03-30T21:15:57.467Z,44.63
2019-03-30T21:19:06.811Z,43.63
2019-03-30T21:22:16.172Z,45.30
2019-03-30T21:25:36.023Z,45.77
2019-03-30T21:28:45.397Z,44.97
2019-03-30T21:31:54.928Z,45.40
2019-03-30T21:35:14.604Z,44.90
2019-03-30T21:38:23.939Z,45.33
2019-03-30T21:41:33.284Z,43.50
2019-03-30T21:44:42.634Z,45.67
2019-03-30T21:47:52.686Z,43.40
2019-03-30T21:51:12.303Z,45.23
2019-03-30T21:54:24.633Z,45.60
2019-03-30T21:57:34.654Z,44.00
2019-03-30T22:00:44.205Z,45.47
2019-03-30T22:03:53.602Z,45.60
2019-03-30T22:07:13.464Z,44.40
2019-03-30T22:10:30.060Z,42.37
2019-03-30T22:13:39.548Z,42.97
2019-03-30T22:16:50.365Z,44.10
2019-03-30T22:19:59.698Z,43.57
2019-03-30T22:23:09.052Z,43.80
2019-03-30T22:26:18.383Z,43.30
2019-03-30T22:29:27.777Z,44.93
2019-03-30T22:32:37.245Z,41.50
2019-03-30T22:35:46.594Z,43.60
2019-03-30T22:39:12.328Z,40.80
2019-03-30T22:42:21.812Z,41.03
2019-03-30T22:45:31.148Z,39.93
2019-03-30T22:48:50.895Z,42.27
2019-03-30T22:52:00.339Z,40.73
2019-03-30T22:55:09.769Z,40.00
2019-03-30T22:58:29.428Z,40.27
2019-03-30T23:01:38.882Z,39.47
2019-03-30T23:04:48.340Z,39.00
2019-03-30T23:08:07.976Z,39.90
2019-03-30T23:11:17.431Z,38.37
2019-03-30T23:14:27.778Z,38.73
2019-03-30T23:17:37.255Z,40.27
2019-03-30T23:20:56.936Z,36.53
2019-03-30T23:24:06.416Z,38.10
2019-03-30T23:27:15.760Z,36.40
2019-03-30T23:30:36.458Z,35.03
2019-03-30T23:33:45.854Z,36.67
2019-03-30T23:36:56.008Z,36.47
2019-03-30T23:40:16.107Z,34.20
2019-03-30T23:43:25.527Z,33.60
2019-03-30T23:46:34.875Z,32.63
2019-03-30T23:49:44.223Z,30.47
2019-03-30T23:52:53.545Z,30.90
2019-03-30T23:56:02.903Z,29.13
2019-03-30T23:59:12.248Z,29.80
